Time;durP1;ratioP1;P1;durP2;ratioP2;P2;SDS_P1;SDS_P2;PMS_P1;PMS_P2;Temp;Humidity;BMP_temperature;BMP_pressure;BME280_temperature;BME280_humidity;BME280_pressure;Samples;Min_cycle;Max_cycle;Signal;HPM_P1;HPM_P2
2022/03/18 00:00:45;;;;;;;13.90;2.38;;;;;;;;;;6277248;22;20214;-65
2022/03/18 00:03:11;;;;;;;13.80;2.55;;;;;;;;;;6277080;22;20174;-65
2022/03/18 00:05:37;;;;;;;8.43;1.95;;;;;;;;;;6277364;22;20177;-65
2022/03/18 00:08:04;;;;;;;8.00;1.88;;;;;;;;;;6277273;22;20201;-65
2022/03/18 00:10:31;;;;;;;12.95;2.50;;;;;;;;;;6277256;22;20618;-65
2022/03/18 00:12:58;;;;;;;12.40;2.40;;;;;;;;;;6277165;22;20231;-65
2022/03/18 00:15:24;;;;;;;14.52;2.58;;;;;;;;;;6276928;22;20174;-65
2022/03/18 00:17:50;;;;;;;8.68;1.95;;;;;;;;;;6277258;22;20178;-65
2022/03/18 00:20:17;;;;;;;16.05;3.33;;;;;;;;;;6277111;22;20166;-64
2022/03/18 00:22:43;;;;;;;9.50;2.17;;;;;;;;;;6277116;22;20146;-64
2022/03/18 00:25:10;;;;;;;10.07;2.17;;;;;;;;;;6277373;22;20155;-64
2022/03/18 00:27:37;;;;;;;13.45;2.00;;;;;;;;;;6277684;22;20448;-64
2022/03/18 00:30:07;;;;;;;8.32;2.20;;;;;;;;;;6277261;22;20162;-65
2022/03/18 00:32:33;;;;;;;13.57;3.03;;;;;;;;;;6277262;22;20182;-65
2022/03/18 00:34:59;;;;;;;11.05;2.38;;;;;;;;;;6277317;22;20323;-65
2022/03/18 00:37:25;;;;;;;14.10;2.53;;;;;;;;;;6276674;22;20152;-65
2022/03/18 00:39:51;;;;;;;9.95;2.55;;;;;;;;;;6277251;22;20277;-64
2022/03/18 00:42:17;;;;;;;9.25;1.92;;;;;;;;;;6277003;22;20139;-64
2022/03/18 00:44:43;;;;;;;17.27;2.90;;;;;;;;;;6277598;22;20666;-64
2022/03/18 00:52:03;;;;;;;16.08;2.80;;;;;;;;;;6276909;22;20549;-65
2022/03/18 00:52:40;;;;;;;10.52;2.30;;;;;;;;;;6277100;22;20197;-65
2022/03/18 00:55:06;;;;;;;14.10;2.58;;;;;;;;;;6277077;22;20202;-65
2022/03/18 00:57:32;;;;;;;15.10;3.20;;;;;;;;;;6276921;22;20544;-65
2022/03/18 00:59:58;;;;;;;14.32;2.70;;;;;;;;;;6277005;22;20144;-65
2022/03/18 01:02:24;;;;;;;14.75;2.40;;;;;;;;;;6276969;22;20171;-65
2022/03/18 01:04:50;;;;;;;14.65;3.10;;;;;;;;;;6277104;22;20151;-64
2022/03/18 01:07:17;;;;;;;11.70;2.80;;;;;;;;;;6277126;22;20607;-64
2022/03/18 01:09:43;;;;;;;8.13;2.50;;;;;;;;;;6276961;22;20453;-65
2022/03/18 01:12:09;;;;;;;6.75;2.38;;;;;;;;;;6276917;22;20139;-64
2022/03/18 01:14:35;;;;;;;13.23;2.58;;;;;;;;;;6276661;22;20262;-64
2022/03/18 01:17:01;;;;;;;12.73;2.53;;;;;;;;;;6277033;22;20465;-65
2022/03/18 01:19:27;;;;;;;10.75;2.30;;;;;;;;;;6276866;22;20146;-65
2022/03/18 01:21:53;;;;;;;8.95;2.30;;;;;;;;;;6276883;22;20433;-65
2022/03/18 01:24:19;;;;;;;18.65;2.72;;;;;;;;;;6276659;22;20170;-65
2022/03/18 01:26:45;;;;;;;13.40;2.63;;;;;;;;;;6276810;22;20455;-65
2022/03/18 01:29:12;;;;;;;10.95;2.67;;;;;;;;;;6276588;22;20197;-65
2022/03/18 01:31:37;;;;;;;10.35;2.50;;;;;;;;;;6277166;22;20174;-65
2022/03/18 01:34:03;;;;;;;10.05;3.30;;;;;;;;;;6276967;22;20139;-64
2022/03/18 01:36:29;;;;;;;13.38;3.78;;;;;;;;;;6276680;22;20170;-65
2022/03/18 01:38:55;;;;;;;13.38;2.67;;;;;;;;;;6277071;22;20491;-64
2022/03/18 01:41:21;;;;;;;18.98;2.75;;;;;;;;;;6276782;22;20582;-64
2022/03/18 01:43:48;;;;;;;15.15;2.55;;;;;;;;;;6278066;22;20213;-64
2022/03/18 01:46:15;;;;;;;14.20;2.95;;;;;;;;;;6277265;22;20140;-64
2022/03/18 01:48:41;;;;;;;8.38;2.83;;;;;;;;;;6278620;22;20140;-64
2022/03/18 01:51:07;;;;;;;11.35;2.65;;;;;;;;;;6281139;22;20232;-65
2022/03/18 01:53:37;;;;;;;15.43;2.95;;;;;;;;;;6279400;22;20229;-64
2022/03/18 01:56:03;;;;;;;8.85;2.70;;;;;;;;;;6278695;22;20221;-65
2022/03/18 01:58:29;;;;;;;10.85;2.72;;;;;;;;;;6278769;22;20140;-64
2022/03/18 02:00:55;;;;;;;11.65;3.03;;;;;;;;;;6278484;22;20442;-65
2022/03/18 02:03:21;;;;;;;11.10;2.83;;;;;;;;;;6278670;22;20218;-65
2022/03/18 02:05:47;;;;;;;7.68;2.25;;;;;;;;;;6278389;22;20148;-65
2022/03/18 02:08:15;;;;;;;12.15;2.85;;;;;;;;;;6278959;22;20162;-65
2022/03/18 02:10:42;;;;;;;16.60;2.78;;;;;;;;;;6278245;22;20587;-65
2022/03/18 02:13:08;;;;;;;10.57;2.95;;;;;;;;;;6278521;22;20151;-65
2022/03/18 02:15:34;;;;;;;10.82;2.65;;;;;;;;;;6278238;22;20167;-65
2022/03/18 02:17:59;;;;;;;12.50;2.92;;;;;;;;;;6278371;22;20144;-65
2022/03/18 02:20:25;;;;;;;15.93;3.22;;;;;;;;;;6278332;22;20135;-65
2022/03/18 02:22:52;;;;;;;11.38;3.00;;;;;;;;;;6278437;22;20165;-65
2022/03/18 02:25:18;;;;;;;13.32;2.80;;;;;;;;;;6278293;22;20218;-65
2022/03/18 02:27:53;;;;;;;16.00;3.00;;;;;;;;;;6278870;22;20170;-65
2022/03/18 02:30:19;;;;;;;10.77;3.15;;;;;;;;;;6278783;22;20216;-65
2022/03/18 02:32:46;;;;;;;18.02;3.28;;;;;;;;;;6279217;22;20166;-64
2022/03/18 02:35:12;;;;;;;14.60;3.85;;;;;;;;;;6279944;22;20163;-65
2022/03/18 02:37:37;;;;;;;15.30;3.78;;;;;;;;;;6281549;22;20155;-65
2022/03/18 02:40:04;;;;;;;10.73;3.13;;;;;;;;;;6282889;22;20205;-65
2022/03/18 02:42:29;;;;;;;12.10;3.13;;;;;;;;;;6281424;22;20201;-64
2022/03/18 02:44:55;;;;;;;19.80;4.30;;;;;;;;;;6278867;22;20560;-65
2022/03/18 02:47:21;;;;;;;16.05;4.00;;;;;;;;;;6278787;22;20548;-65
2022/03/18 02:49:47;;;;;;;14.75;3.70;;;;;;;;;;6279704;22;20446;-65
2022/03/18 02:52:14;;;;;;;13.75;4.15;;;;;;;;;;6280428;22;20444;-65
2022/03/18 02:54:40;;;;;;;14.07;5.07;;;;;;;;;;6280152;22;20175;-65
2022/03/18 02:57:06;;;;;;;19.38;5.38;;;;;;;;;;6251572;22;20224;-65
2022/03/18 02:59:33;;;;;;;16.88;4.82;;;;;;;;;;6278519;22;20196;-64
2022/03/18 03:01:59;;;;;;;17.50;4.25;;;;;;;;;;6277887;22;20462;-65
2022/03/18 03:04:25;;;;;;;17.65;4.82;;;;;;;;;;6279573;22;20136;-65
2022/03/18 03:09:35;;;;;;;15.45;4.60;;;;;;;;;;6278335;22;20190;-64
2022/03/18 03:12:01;;;;;;;24.83;5.82;;;;;;;;;;6278434;22;20139;-64
2022/03/18 03:14:27;;;;;;;15.63;5.15;;;;;;;;;;6278078;22;20419;-64
2022/03/18 03:16:53;;;;;;;21.75;5.30;;;;;;;;;;6277779;22;20142;-63
2022/03/18 03:19:19;;;;;;;22.75;5.38;;;;;;;;;;6278124;22;20143;-65
2022/03/18 03:21:45;;;;;;;20.55;5.28;;;;;;;;;;6277668;22;20224;-65
2022/03/18 03:24:12;;;;;;;20.27;5.40;;;;;;;;;;6277845;22;20139;-65
2022/03/18 03:26:38;;;;;;;15.55;4.75;;;;;;;;;;6278091;22;20182;-65
2022/03/18 03:29:04;;;;;;;16.73;5.38;;;;;;;;;;6278134;22;20167;-65
2022/03/18 03:31:30;;;;;;;19.10;6.05;;;;;;;;;;6277635;22;20174;-65
2022/03/18 03:33:56;;;;;;;22.55;5.70;;;;;;;;;;6277777;22;20599;-64
2022/03/18 03:36:23;;;;;;;18.50;6.30;;;;;;;;;;6277700;22;20183;-64
2022/03/18 03:38:49;;;;;;;23.48;6.50;;;;;;;;;;6278038;22;20140;-65
2022/03/18 03:41:15;;;;;;;17.33;6.53;;;;;;;;;;6277658;22;20170;-65
2022/03/18 03:43:42;;;;;;;16.40;5.85;;;;;;;;;;6277731;22;20548;-65
2022/03/18 03:46:08;;;;;;;17.38;5.70;;;;;;;;;;6277401;22;20503;-65
2022/03/18 03:48:34;;;;;;;21.02;5.70;;;;;;;;;;6277841;22;20179;-64
2022/03/18 03:51:00;;;;;;;19.17;5.60;;;;;;;;;;6277545;22;20247;-64
2022/03/18 03:53:26;;;;;;;16.95;5.03;;;;;;;;;;6277707;22;20552;-64
2022/03/18 03:55:53;;;;;;;17.13;5.65;;;;;;;;;;6277779;22;20195;-64
2022/03/18 03:58:18;;;;;;;19.98;5.63;;;;;;;;;;6277935;22;20194;-64
2022/03/18 04:00:44;;;;;;;14.30;5.70;;;;;;;;;;6277540;22;20139;-65
2022/03/18 04:03:13;;;;;;;14.98;5.80;;;;;;;;;;6277464;22;20136;-65
2022/03/18 04:05:39;;;;;;;12.80;4.95;;;;;;;;;;6277698;22;20150;-65
2022/03/18 04:08:05;;;;;;;16.23;5.45;;;;;;;;;;6277312;22;20144;-65
2022/03/18 04:10:31;;;;;;;18.92;5.75;;;;;;;;;;6277952;22;20620;-65
2022/03/18 04:12:57;;;;;;;10.35;5.00;;;;;;;;;;6276666;22;20571;-65
2022/03/18 04:15:23;;;;;;;10.00;4.95;;;;;;;;;;6277284;22;20194;-65
2022/03/18 04:17:50;;;;;;;10.27;4.70;;;;;;;;;;6277818;22;20139;-64
2022/03/18 04:20:22;;;;;;;9.60;4.55;;;;;;;;;;6277656;22;20552;-64
2022/03/18 04:22:49;;;;;;;13.70;5.65;;;;;;;;;;6277286;22;20447;-64
2022/03/18 04:25:15;;;;;;;8.57;4.47;;;;;;;;;;6250593;22;20151;-65
2022/03/18 04:27:42;;;;;;;11.98;4.57;;;;;;;;;;6277621;22;20182;-64
2022/03/18 04:30:09;;;;;;;11.68;4.10;;;;;;;;;;6277734;22;20144;-65
2022/03/18 04:32:36;;;;;;;16.83;4.55;;;;;;;;;;6277200;22;20140;-65
2022/03/18 04:35:02;;;;;;;18.25;4.25;;;;;;;;;;6277228;22;20499;-65
2022/03/18 04:37:28;;;;;;;19.08;4.60;;;;;;;;;;6277741;22;20166;-64
2022/03/18 04:39:54;;;;;;;24.35;4.18;;;;;;;;;;6277568;22;20492;-64
2022/03/18 04:42:20;;;;;;;9.30;3.90;;;;;;;;;;6278410;22;20203;-64
2022/03/18 04:44:45;;;;;;;21.95;4.60;;;;;;;;;;6278315;22;20147;-64
2022/03/18 04:47:12;;;;;;;12.07;4.03;;;;;;;;;;6280508;22;20171;-65
2022/03/18 04:49:38;;;;;;;17.23;4.10;;;;;;;;;;6279472;22;20166;-64
2022/03/18 04:52:04;;;;;;;21.45;4.53;;;;;;;;;;6281863;22;20214;-64
2022/03/18 04:54:30;;;;;;;18.90;4.72;;;;;;;;;;6281366;22;20143;-64
2022/03/18 04:59:41;;;;;;;19.85;4.85;;;;;;;;;;6286843;22;20185;-64
2022/03/18 05:02:07;;;;;;;24.17;5.07;;;;;;;;;;6292260;22;20136;-64
2022/03/18 05:04:33;;;;;;;21.30;5.38;;;;;;;;;;6298324;22;20162;-64
2022/03/18 05:06:59;;;;;;;45.15;5.57;;;;;;;;;;6289231;22;20143;-65
2022/03/18 05:09:25;;;;;;;43.30;5.68;;;;;;;;;;6278319;22;20148;-64
2022/03/18 05:11:51;;;;;;;31.00;5.50;;;;;;;;;;6277517;22;20143;-64
2022/03/18 05:14:17;;;;;;;29.35;6.28;;;;;;;;;;6277533;22;20454;-64
2022/03/18 05:16:43;;;;;;;28.83;5.60;;;;;;;;;;6277469;22;20174;-64
2022/03/18 05:19:12;;;;;;;26.63;6.00;;;;;;;;;;6277170;22;20222;-64
2022/03/18 05:21:39;;;;;;;33.20;6.18;;;;;;;;;;6277626;22;20205;-65
2022/03/18 05:24:06;;;;;;;43.92;5.70;;;;;;;;;;6278504;22;20144;-64
2022/03/18 05:26:32;;;;;;;38.85;7.00;;;;;;;;;;6279312;22;20248;-64
2022/03/18 05:28:58;;;;;;;37.30;6.22;;;;;;;;;;6279159;22;20570;-63
2022/03/18 05:31:26;;;;;;;39.53;5.78;;;;;;;;;;6279219;22;20186;-64
2022/03/18 05:33:52;;;;;;;49.90;6.88;;;;;;;;;;6279248;22;20226;-64
2022/03/18 05:36:18;;;;;;;37.28;6.70;;;;;;;;;;6279107;22;20205;-64
2022/03/18 05:38:43;;;;;;;18.05;5.40;;;;;;;;;;6279793;22;20156;-64
2022/03/18 05:41:09;;;;;;;22.38;6.15;;;;;;;;;;6279162;22;20542;-64
2022/03/18 05:43:36;;;;;;;24.98;5.75;;;;;;;;;;6280437;22;20198;-64
2022/03/18 05:46:02;;;;;;;13.05;5.95;;;;;;;;;;6283726;22;20144;-64
2022/03/18 05:48:28;;;;;;;20.88;6.32;;;;;;;;;;6288681;22;20567;-64
2022/03/18 05:50:54;;;;;;;21.65;6.35;;;;;;;;;;6290416;22;20139;-64
2022/03/18 05:53:20;;;;;;;15.70;5.65;;;;;;;;;;6293318;22;20152;-64
2022/03/18 05:58:31;;;;;;;18.33;6.13;;;;;;;;;;6285632;22;20625;-64
2022/03/18 06:00:56;;;;;;;10.52;5.75;;;;;;;;;;6270954;22;20230;-64
2022/03/18 06:03:24;;;;;;;10.10;6.18;;;;;;;;;;6297884;22;20139;-65
2022/03/18 06:05:50;;;;;;;12.93;6.22;;;;;;;;;;6299185;22;20154;-65
2022/03/18 06:13:45;;;;;;;17.92;6.55;;;;;;;;;;6302546;22;20151;-65
2022/03/18 06:16:11;;;;;;;15.15;6.28;;;;;;;;;;6301983;22;20163;-65
2022/03/18 06:18:37;;;;;;;15.02;6.40;;;;;;;;;;6301581;22;20170;-65
2022/03/18 06:21:06;;;;;;;18.20;6.28;;;;;;;;;;6300065;22;20138;-65
2022/03/18 06:23:32;;;;;;;8.93;5.70;;;;;;;;;;6290514;22;20615;-65
2022/03/18 06:25:58;;;;;;;11.77;6.05;;;;;;;;;;6278601;22;20230;-65
2022/03/18 06:28:24;;;;;;;13.80;5.90;;;;;;;;;;6279096;22;20140;-65
2022/03/18 06:30:51;;;;;;;10.30;6.43;;;;;;;;;;6279041;22;20147;-65
2022/03/18 06:33:17;;;;;;;10.88;5.53;;;;;;;;;;6278506;22;20171;-64
2022/03/18 06:35:43;;;;;;;11.35;5.80;;;;;;;;;;6277805;22;20170;-64
2022/03/18 06:38:09;;;;;;;8.43;5.32;;;;;;;;;;6278090;22;20564;-64
2022/03/18 06:40:35;;;;;;;9.40;5.90;;;;;;;;;;6278910;22;20590;-64
2022/03/18 06:43:00;;;;;;;10.15;6.10;;;;;;;;;;6278132;22;20140;-65
2022/03/18 06:45:26;;;;;;;8.60;5.43;;;;;;;;;;6278083;22;20218;-65
2022/03/18 06:47:53;;;;;;;19.45;6.53;;;;;;;;;;6277956;22;20146;-65
2022/03/18 06:50:19;;;;;;;15.20;5.60;;;;;;;;;;6278323;22;20143;-64
2022/03/18 06:52:45;;;;;;;14.82;5.88;;;;;;;;;;6278367;22;20182;-64
2022/03/18 06:55:11;;;;;;;9.32;5.50;;;;;;;;;;6278315;22;20164;-64
2022/03/18 06:57:36;;;;;;;10.85;5.80;;;;;;;;;;6278258;22;20136;-64
2022/03/18 07:00:03;;;;;;;11.48;6.13;;;;;;;;;;6278563;22;20225;-63
2022/03/18 07:02:29;;;;;;;9.80;6.38;;;;;;;;;;6278837;22;20220;-64
2022/03/18 07:04:55;;;;;;;10.43;6.32;;;;;;;;;;6251373;22;20148;-64
2022/03/18 07:07:21;;;;;;;8.77;6.30;;;;;;;;;;6278383;22;20522;-64
2022/03/18 07:09:47;;;;;;;9.45;5.55;;;;;;;;;;6277793;22;20441;-64
2022/03/18 07:12:13;;;;;;;8.65;6.13;;;;;;;;;;6277926;22;20139;-65
2022/03/18 07:14:39;;;;;;;8.23;5.28;;;;;;;;;;6278299;22;20213;-64
2022/03/18 07:19:51;;;;;;;10.27;6.40;;;;;;;;;;6278094;22;20144;-64
2022/03/18 07:22:17;;;;;;;9.85;6.10;;;;;;;;;;6277995;22;20144;-65
2022/03/18 07:24:43;;;;;;;8.93;5.90;;;;;;;;;;6278022;22;20215;-64
2022/03/18 07:27:09;;;;;;;7.47;5.68;;;;;;;;;;6278069;22;20525;-64
2022/03/18 07:29:35;;;;;;;9.00;6.03;;;;;;;;;;6278268;22;20148;-64
2022/03/18 07:32:01;;;;;;;10.13;5.95;;;;;;;;;;6277918;22;20169;-64
2022/03/18 07:34:27;;;;;;;8.88;6.07;;;;;;;;;;6277697;22;20143;-64
2022/03/18 07:36:53;;;;;;;8.60;6.35;;;;;;;;;;6277622;22;20621;-64
2022/03/18 07:39:19;;;;;;;8.95;6.38;;;;;;;;;;6277837;22;20139;-64
2022/03/18 07:41:44;;;;;;;7.60;6.05;;;;;;;;;;6277758;22;20206;-64
2022/03/18 07:44:10;;;;;;;9.68;6.60;;;;;;;;;;6277690;22;20170;-65
2022/03/18 07:46:37;;;;;;;9.90;6.32;;;;;;;;;;6277649;22;20190;-65
2022/03/18 07:49:02;;;;;;;10.27;6.78;;;;;;;;;;6278028;22;20201;-63
2022/03/18 07:51:30;;;;;;;10.13;6.25;;;;;;;;;;6277697;22;20148;-63
2022/03/18 07:53:56;;;;;;;11.05;6.05;;;;;;;;;;6277920;22;20424;-64
2022/03/18 07:56:22;;;;;;;11.57;6.13;;;;;;;;;;6277568;22;20257;-63
2022/03/18 07:58:48;;;;;;;12.93;6.47;;;;;;;;;;6277440;22;20140;-63
2022/03/18 08:01:14;;;;;;;9.65;6.40;;;;;;;;;;6277599;22;20144;-63
2022/03/18 08:03:40;;;;;;;13.45;6.32;;;;;;;;;;6277583;22;20143;-65
2022/03/18 08:06:06;;;;;;;10.05;6.55;;;;;;;;;;6277485;22;20356;-65
2022/03/18 08:08:32;;;;;;;13.70;6.53;;;;;;;;;;6277249;22;20148;-65
2022/03/18 08:10:58;;;;;;;14.43;7.25;;;;;;;;;;6277415;22;20147;-65
2022/03/18 08:13:24;;;;;;;15.23;6.38;;;;;;;;;;6277589;22;20139;-64
2022/03/18 08:15:50;;;;;;;12.50;7.38;;;;;;;;;;6277254;22;20167;-63
2022/03/18 08:18:16;;;;;;;13.85;7.32;;;;;;;;;;6277255;22;20140;-64
2022/03/18 08:20:43;;;;;;;14.20;7.10;;;;;;;;;;6277192;22;20215;-64
2022/03/18 08:23:09;;;;;;;10.63;6.07;;;;;;;;;;6250619;22;20143;-64
2022/03/18 08:25:35;;;;;;;13.80;7.15;;;;;;;;;;6277239;22;20226;-64
2022/03/18 08:28:01;;;;;;;14.52;6.43;;;;;;;;;;6277194;22;20232;-64
2022/03/18 08:30:27;;;;;;;10.43;6.18;;;;;;;;;;6277553;22;20151;-64
2022/03/18 08:32:53;;;;;;;15.95;6.40;;;;;;;;;;6277413;22;20144;-64
2022/03/18 08:35:19;;;;;;;12.27;6.53;;;;;;;;;;6277463;22;20627;-64
2022/03/18 08:37:57;;;;;;;14.32;5.63;;;;;;;;;;6277410;22;20182;-63
2022/03/18 08:40:24;;;;;;;13.38;6.22;;;;;;;;;;6277684;22;20123;-64
2022/03/18 08:42:51;;;;;;;15.27;5.80;;;;;;;;;;6277584;22;20158;-64
2022/03/18 08:45:18;;;;;;;12.32;6.03;;;;;;;;;;6277272;22;20230;-64
2022/03/18 08:47:44;;;;;;;13.25;5.93;;;;;;;;;;6277650;22;20144;-64
2022/03/18 08:50:10;;;;;;;12.45;5.30;;;;;;;;;;6277083;22;20387;-64
2022/03/18 08:52:36;;;;;;;10.65;5.47;;;;;;;;;;6277188;22;20574;-63
2022/03/18 08:55:02;;;;;;;12.30;5.85;;;;;;;;;;6277291;22;20168;-63
2022/03/18 08:57:28;;;;;;;10.30;5.68;;;;;;;;;;6277423;22;20210;-64
2022/03/18 08:59:55;;;;;;;9.63;4.82;;;;;;;;;;6277326;22;20174;-63
2022/03/18 09:02:21;;;;;;;12.27;5.40;;;;;;;;;;6277420;22;20223;-63
2022/03/18 09:04:52;;;;;;;10.30;4.68;;;;;;;;;;6277402;22;20154;-64
2022/03/18 09:07:18;;;;;;;8.30;4.90;;;;;;;;;;6277528;22;20150;-64
2022/03/18 09:09:44;;;;;;;9.45;4.95;;;;;;;;;;6277409;22;20417;-64
2022/03/18 09:12:10;;;;;;;15.35;5.47;;;;;;;;;;6277122;22;20226;-64
2022/03/18 09:14:36;;;;;;;10.27;4.88;;;;;;;;;;6277149;22;20143;-64
2022/03/18 09:17:02;;;;;;;14.05;5.72;;;;;;;;;;6277115;22;20136;-64
2022/03/18 09:19:28;;;;;;;12.00;4.93;;;;;;;;;;6277033;22;20139;-64
2022/03/18 09:21:54;;;;;;;10.63;4.63;;;;;;;;;;6277291;22;20447;-64
2022/03/18 09:24:20;;;;;;;9.52;4.80;;;;;;;;;;6277217;22;20151;-64
2022/03/18 09:26:46;;;;;;;10.30;4.60;;;;;;;;;;6276935;22;20158;-64
2022/03/18 09:29:12;;;;;;;11.25;4.35;;;;;;;;;;6277002;22;20210;-64
2022/03/18 09:31:38;;;;;;;10.00;4.55;;;;;;;;;;6276748;22;20229;-64
2022/03/18 09:34:04;;;;;;;13.95;4.90;;;;;;;;;;6276814;22;20173;-64
2022/03/18 09:36:31;;;;;;;11.73;4.90;;;;;;;;;;6277030;22;20186;-64
2022/03/18 09:38:57;;;;;;;12.30;5.22;;;;;;;;;;6276797;22;20151;-64
2022/03/18 09:41:23;;;;;;;13.85;5.55;;;;;;;;;;6277035;22;20139;-64
2022/03/18 09:43:49;;;;;;;12.45;5.90;;;;;;;;;;6277024;22;20174;-64
2022/03/18 09:46:17;;;;;;;10.85;5.03;;;;;;;;;;6276865;22;20497;-64
2022/03/18 09:48:43;;;;;;;11.43;5.40;;;;;;;;;;6276864;22;20205;-64
2022/03/18 09:51:09;;;;;;;10.52;5.45;;;;;;;;;;6276683;22;20556;-64
2022/03/18 09:53:35;;;;;;;9.05;4.80;;;;;;;;;;6277079;22;20146;-64
2022/03/18 09:56:02;;;;;;;9.77;4.55;;;;;;;;;;6277132;22;20256;-64
2022/03/18 09:58:28;;;;;;;11.52;4.90;;;;;;;;;;6283726;22;20136;-64
2022/03/18 10:00:58;;;;;;;9.50;4.95;;;;;;;;;;6281823;22;20147;-64
2022/03/18 10:03:24;;;;;;;11.77;4.93;;;;;;;;;;6281327;22;20140;-64
2022/03/18 10:05:56;;;;;;;9.93;5.00;;;;;;;;;;6279359;22;20477;-64
2022/03/18 10:08:22;;;;;;;13.75;4.53;;;;;;;;;;6278297;22;20135;-64
2022/03/18 10:10:49;;;;;;;10.70;4.70;;;;;;;;;;6277823;22;20144;-64
2022/03/18 10:13:16;;;;;;;10.48;4.60;;;;;;;;;;6278739;22;20143;-64
2022/03/18 10:15:43;;;;;;;9.50;4.50;;;;;;;;;;6279261;22;20174;-64
2022/03/18 10:18:12;;;;;;;17.40;5.63;;;;;;;;;;6279228;22;20135;-64
2022/03/18 10:20:39;;;;;;;10.93;5.35;;;;;;;;;;6278929;22;20177;-64
2022/03/18 10:23:18;;;;;;;11.55;5.95;;;;;;;;;;6278670;22;20136;-64
2022/03/18 10:25:50;;;;;;;14.02;5.28;;;;;;;;;;6279222;22;20143;-64
2022/03/18 10:28:16;;;;;;;14.88;5.20;;;;;;;;;;6279471;22;20144;-64
2022/03/18 10:30:42;;;;;;;11.65;5.40;;;;;;;;;;6279223;22;20173;-64
2022/03/18 10:33:09;;;;;;;10.98;5.28;;;;;;;;;;6279626;22;20240;-64
2022/03/18 10:38:31;;;;;;;15.88;5.65;;;;;;;;;;6231348;22;20639;-64
2022/03/18 10:40:59;;;;;;;13.95;5.30;;;;;;;;;;6278270;22;20139;-64
2022/03/18 10:43:25;;;;;;;10.48;5.45;;;;;;;;;;6278586;22;20136;-64
2022/03/18 10:46:02;;;;;;;12.07;5.63;;;;;;;;;;6278013;22;20160;-64
2022/03/18 10:48:28;;;;;;;15.80;5.80;;;;;;;;;;6278683;22;20234;-64
2022/03/18 10:51:01;;;;;;;12.85;6.05;;;;;;;;;;6278151;22;20455;-64
2022/03/18 10:53:30;;;;;;;13.90;5.13;;;;;;;;;;6278387;22;20556;-64
2022/03/18 10:55:59;;;;;;;10.63;5.82;;;;;;;;;;6278699;22;20246;-64
2022/03/18 10:58:29;;;;;;;11.45;6.25;;;;;;;;;;6278475;22;20167;-64
2022/03/18 11:00:56;;;;;;;13.15;5.72;;;;;;;;;;6278431;22;20152;-64
2022/03/18 11:03:23;;;;;;;13.00;5.70;;;;;;;;;;6278095;22;20574;-64
2022/03/18 11:05:54;;;;;;;11.95;5.28;;;;;;;;;;6277924;22;20578;-64
2022/03/18 11:08:24;;;;;;;8.95;5.18;;;;;;;;;;6278529;22;20190;-64
2022/03/18 11:13:48;;;;;;;16.90;5.47;;;;;;;;;;6278074;22;20147;-64
2022/03/18 11:16:17;;;;;;;10.30;5.43;;;;;;;;;;6278212;22;20163;-64
2022/03/18 11:18:44;;;;;;;10.55;5.25;;;;;;;;;;6277716;22;20227;-64
2022/03/18 11:21:10;;;;;;;12.15;5.57;;;;;;;;;;6277768;22;20152;-64
2022/03/18 11:23:38;;;;;;;11.05;5.30;;;;;;;;;;6277533;22;20143;-65
2022/03/18 11:26:04;;;;;;;13.23;5.90;;;;;;;;;;6277300;22;20160;-65
2022/03/18 11:28:30;;;;;;;15.40;6.07;;;;;;;;;;6278131;22;20162;-64
2022/03/18 11:31:04;;;;;;;10.02;5.75;;;;;;;;;;6277669;22;20144;-65
2022/03/18 11:33:30;;;;;;;10.55;5.38;;;;;;;;;;6278075;22;20151;-64
2022/03/18 11:35:56;;;;;;;12.60;6.00;;;;;;;;;;6278001;22;20571;-64
2022/03/18 11:38:47;;;;;;;12.30;5.88;;;;;;;;;;6277634;22;20281;-64
2022/03/18 11:41:14;;;;;;;10.43;5.20;;;;;;;;;;6277941;22;20128;-64
2022/03/18 11:43:40;;;;;;;10.43;5.00;;;;;;;;;;6277849;22;20136;-64
2022/03/18 11:46:20;;;;;;;9.63;5.78;;;;;;;;;;6278055;22;20154;-64
2022/03/18 11:48:46;;;;;;;11.38;5.75;;;;;;;;;;6277801;22;20134;-64
2022/03/18 11:51:23;;;;;;;12.77;5.80;;;;;;;;;;6277512;22;20152;-64
2022/03/18 11:53:51;;;;;;;15.30;6.35;;;;;;;;;;6277878;22;20131;-64
2022/03/18 11:56:18;;;;;;;13.23;6.38;;;;;;;;;;6277867;22;20304;-65
2022/03/18 11:58:44;;;;;;;12.07;6.13;;;;;;;;;;6277658;22;20484;-65
2022/03/18 12:01:29;;;;;;;12.15;6.68;;;;;;;;;;6277738;22;20147;-65
2022/03/18 12:03:56;;;;;;;14.98;6.53;;;;;;;;;;6277580;22;20150;-66
2022/03/18 12:06:21;;;;;;;15.50;7.70;;;;;;;;;;6277966;22;20140;-64
2022/03/18 12:08:51;;;;;;;18.80;7.18;;;;;;;;;;6277559;22;20143;-64
2022/03/18 12:11:25;;;;;;;16.27;6.97;;;;;;;;;;6277794;22;20517;-65
2022/03/18 12:13:51;;;;;;;16.92;6.78;;;;;;;;;;6277688;22;20181;-65
2022/03/18 12:16:20;;;;;;;17.30;6.38;;;;;;;;;;6277183;22;20568;-65
2022/03/18 12:18:46;;;;;;;13.25;7.13;;;;;;;;;;6277551;22;20162;-64
2022/03/18 12:21:12;;;;;;;13.80;6.65;;;;;;;;;;6277771;22;20162;-63
2022/03/18 12:23:38;;;;;;;15.63;8.15;;;;;;;;;;6277321;22;20140;-65
2022/03/18 12:26:05;;;;;;;12.52;6.82;;;;;;;;;;6277249;22;20602;-65
2022/03/18 12:28:44;;;;;;;16.63;7.28;;;;;;;;;;6277561;22;20143;-65
2022/03/18 12:31:14;;;;;;;15.45;7.97;;;;;;;;;;6277467;22;20135;-65
2022/03/18 12:33:39;;;;;;;15.55;7.57;;;;;;;;;;6276990;22;20144;-65
2022/03/18 12:36:05;;;;;;;14.80;7.07;;;;;;;;;;6277123;22;20217;-65
2022/03/18 12:38:32;;;;;;;14.38;7.32;;;;;;;;;;6277087;22;20178;-65
2022/03/18 12:40:59;;;;;;;11.85;7.15;;;;;;;;;;6277146;22;20167;-65
2022/03/18 12:43:31;;;;;;;13.88;7.32;;;;;;;;;;6277090;22;20136;-65
2022/03/18 12:45:57;;;;;;;14.55;7.05;;;;;;;;;;6277597;22;20154;-65
2022/03/18 12:48:23;;;;;;;13.25;6.90;;;;;;;;;;6277302;22;20177;-65
2022/03/18 12:50:50;;;;;;;15.13;6.80;;;;;;;;;;6276945;22;20151;-65
2022/03/18 12:53:23;;;;;;;16.70;7.40;;;;;;;;;;6277062;22;20143;-65
2022/03/18 12:55:50;;;;;;;15.63;6.72;;;;;;;;;;6277458;22;20171;-65
2022/03/18 12:58:17;;;;;;;13.43;7.63;;;;;;;;;;6277295;22;20166;-65
2022/03/18 13:00:44;;;;;;;14.77;6.35;;;;;;;;;;6277036;22;20578;-64
2022/03/18 13:03:16;;;;;;;15.38;7.00;;;;;;;;;;6277144;22;20148;-65
2022/03/18 13:05:41;;;;;;;14.77;6.95;;;;;;;;;;6277494;22;20223;-65
2022/03/18 13:08:09;;;;;;;13.95;6.85;;;;;;;;;;6277115;22;20167;-65
2022/03/18 13:10:35;;;;;;;14.20;6.53;;;;;;;;;;6277451;22;20144;-65
2022/03/18 13:13:11;;;;;;;12.88;7.00;;;;;;;;;;6276881;22;20155;-65
2022/03/18 13:15:45;;;;;;;13.65;5.85;;;;;;;;;;6277059;22;20598;-64
2022/03/18 13:18:12;;;;;;;13.88;6.15;;;;;;;;;;6277424;22;20163;-65
2022/03/18 13:20:40;;;;;;;9.63;4.65;;;;;;;;;;6277282;22;20175;-65
2022/03/18 13:23:07;;;;;;;11.32;5.75;;;;;;;;;;6276975;22;20540;-64
2022/03/18 13:25:34;;;;;;;15.98;6.18;;;;;;;;;;6277057;22;20226;-65
2022/03/18 13:28:01;;;;;;;15.02;6.35;;;;;;;;;;6276852;22;20208;-65
2022/03/18 13:33:11;;;;;;;18.83;6.75;;;;;;;;;;6277232;22;20220;-65
2022/03/18 13:35:51;;;;;;;11.13;5.80;;;;;;;;;;6277047;22;20163;-65
2022/03/18 13:38:18;;;;;;;16.05;6.63;;;;;;;;;;6250446;22;20163;-64
2022/03/18 13:40:58;;;;;;;19.92;6.60;;;;;;;;;;6277633;22;20178;-65
2022/03/18 13:43:28;;;;;;;16.10;6.18;;;;;;;;;;6276706;22;20492;-65
2022/03/18 13:46:09;;;;;;;14.02;6.78;;;;;;;;;;6278658;22;20234;-64
2022/03/18 13:48:35;;;;;;;13.98;6.82;;;;;;;;;;6278924;22;20132;-64
2022/03/18 13:51:01;;;;;;;12.65;6.75;;;;;;;;;;6278959;22;20201;-64
2022/03/18 13:53:27;;;;;;;13.27;6.53;;;;;;;;;;6278802;22;20144;-65
2022/03/18 13:55:53;;;;;;;15.52;6.93;;;;;;;;;;6278946;22;20174;-65
2022/03/18 13:58:29;;;;;;;13.80;7.18;;;;;;;;;;6278694;22;20556;-64
2022/03/18 14:01:06;;;;;;;12.65;6.32;;;;;;;;;;6278699;22;20555;-64
2022/03/18 14:03:32;;;;;;;14.55;6.50;;;;;;;;;;6278660;22;20524;-65
2022/03/18 14:06:00;;;;;;;13.13;6.60;;;;;;;;;;6279222;22;20216;-65
2022/03/18 14:08:28;;;;;;;15.63;7.05;;;;;;;;;;6279078;22;20157;-64
2022/03/18 14:10:57;;;;;;;14.70;6.10;;;;;;;;;;6278948;22;20143;-64
2022/03/18 14:13:27;;;;;;;14.40;5.50;;;;;;;;;;6278837;22;20151;-63
2022/03/18 14:15:53;;;;;;;12.50;5.53;;;;;;;;;;6278898;22;20244;-65
2022/03/18 14:18:21;;;;;;;11.82;5.68;;;;;;;;;;6278434;22;20458;-64
2022/03/18 14:20:53;;;;;;;15.25;4.95;;;;;;;;;;6278651;22;20140;-64
2022/03/18 14:23:23;;;;;;;15.57;5.40;;;;;;;;;;6279145;22;20140;-64
2022/03/18 14:25:51;;;;;;;13.23;5.32;;;;;;;;;;6279545;22;20233;-64
2022/03/18 14:28:18;;;;;;;15.68;5.25;;;;;;;;;;6278850;22;20143;-63
2022/03/18 14:30:45;;;;;;;15.82;6.18;;;;;;;;;;6278529;22;20496;-65
2022/03/18 14:33:11;;;;;;;10.52;5.18;;;;;;;;;;6279181;22;20559;-65
2022/03/18 14:35:37;;;;;;;12.55;5.65;;;;;;;;;;6278885;22;20171;-64
2022/03/18 14:38:03;;;;;;;12.43;5.78;;;;;;;;;;6279898;22;20175;-65
2022/03/18 14:40:29;;;;;;;14.68;6.30;;;;;;;;;;6278968;22;20180;-65
2022/03/18 14:42:55;;;;;;;16.55;5.65;;;;;;;;;;6280122;22;20143;-65
2022/03/18 14:45:21;;;;;;;11.05;5.45;;;;;;;;;;6280764;22;20144;-65
2022/03/18 14:47:47;;;;;;;14.00;5.80;;;;;;;;;;6283578;22;20536;-65
2022/03/18 14:50:14;;;;;;;13.93;6.05;;;;;;;;;;6282513;22;20152;-65
2022/03/18 14:52:40;;;;;;;16.48;6.47;;;;;;;;;;6281378;22;20139;-65
2022/03/18 14:57:52;;;;;;;14.70;6.22;;;;;;;;;;6282478;22;20142;-65
2022/03/18 15:00:18;;;;;;;15.30;5.75;;;;;;;;;;6283426;22;20205;-65